Terminal Aerodrome Forecast
Issued by NWS Sterling, VA

Home | Current Version | Previous Version | Text Only | Print | Product List | Glossary On
Versions: 1 2 3 4 5 6 7 8 9 10 11 12 13 14
000
FTUS41 KLWX 242324
TAFCHO
TAF
KCHO 242324Z 2500/2524 20008KT P6SM BKN200
     FM250500 VRB04KT P6SM BKN130
     FM251600 20008KT P6SM BKN050 BKN130=

USA.gov is the U.S. government's official web portal to all federal, state and local government web resources and services.